Uvalde Research's Hourly Summary for Saturday, July 7, 2018
Hour Temp
(f)
RH
(%)
Solar Rad.
(MJ/m2)
Rainfall
(in)
Wind
(mph)
7/7/2018 12:00 AM 74 88 0 0 0.98
7/7/2018 1:00 AM 74 88 0 0 1.54
7/7/2018 2:00 AM 74 89 0 0 0.63
7/7/2018 3:00 AM 73 91 0 0 0.31
7/7/2018 4:00 AM 73 92 0 0 1.61
7/7/2018 5:00 AM 72 94 0 0 0.84
7/7/2018 6:00 AM 71 95 0.01 0 1.02
7/7/2018 7:00 AM 72 94 0.22 0 0.18
7/7/2018 8:00 AM 77 83 0.88 0 0.08
7/7/2018 9:00 AM 81 69 1.5 0 0
7/7/2018 10:00 AM 85 61 1.95 0 1
7/7/2018 11:00 AM 87 54 2.26 0 2.46
7/7/2018 12:00 PM 89 50 2.63 0 2.65
7/7/2018 1:00 PM 87 52 1.59 0 4.02
7/7/2018 2:00 PM 83 61 1.69 0 3.07
7/7/2018 3:00 PM 89 52 2.59 0 2.84
7/7/2018 4:00 PM 89 53 2.11 0 4.41
7/7/2018 5:00 PM 77 77 0.14 0 3.21
7/7/2018 6:00 PM 77 83 0.1 0 0.29
7/7/2018 7:00 PM 77 85 0.18 0.01 1.24
7/7/2018 8:00 PM 75 86 0.02 0 2.34
7/7/2018 9:00 PM 73 90 0 0 2.24
7/7/2018 10:00 PM 73 94 0 0.02 1.69
7/7/2018 11:00 PM 73 96 0 0.01 0.14
Data Summary 78 78 17.87 0.04 1.62